createdAt,value
2024-04-25T00:01:31.874Z,54.7
2024-04-25T00:03:15.574Z,54.6
2024-04-25T00:04:59.293Z,54.6
2024-04-25T00:06:42.979Z,54.7
2024-04-25T00:08:26.681Z,54.6
2024-04-25T00:10:10.388Z,54.6
2024-04-25T00:11:54.094Z,54.7
2024-04-25T00:13:37.801Z,54.7
2024-04-25T00:15:21.490Z,54.7
2024-04-25T00:17:05.191Z,54.6
2024-04-25T00:18:48.917Z,54.6
2024-04-25T00:20:32.618Z,54.6
2024-04-25T00:22:16.311Z,54.6
2024-04-25T00:23:59.988Z,54.6
2024-04-25T00:25:43.716Z,54.6
2024-04-25T00:27:27.417Z,54.6
2024-04-25T00:29:11.136Z,54.6
2024-04-25T00:30:54.802Z,54.6
2024-04-25T00:32:38.493Z,54.6
2024-04-25T00:34:22.222Z,54.6
2024-04-25T00:36:05.901Z,54.6
2024-04-25T00:37:49.610Z,54.7
2024-04-25T00:39:33.314Z,54.6
2024-04-25T00:41:17.017Z,54.5
2024-04-25T00:43:00.730Z,54.5
2024-04-25T00:44:44.412Z,54.6
2024-04-25T00:46:28.125Z,54.6
2024-04-25T00:48:11.821Z,54.5
2024-04-25T00:49:55.537Z,54.6
2024-04-25T00:51:39.211Z,54.5
2024-04-25T00:53:23.119Z,54.6
2024-04-25T00:55:06.619Z,54.6
2024-04-25T00:56:50.333Z,54.5
2024-04-25T00:58:34.017Z,54.6
2024-04-25T01:00:17.722Z,54.5
2024-04-25T01:02:01.421Z,54.5
2024-04-25T01:03:45.125Z,54.5
2024-04-25T01:05:28.847Z,54.5
2024-04-25T01:07:12.548Z,54.5
2024-04-25T01:08:56.264Z,54.5
2024-04-25T01:10:39.958Z,54.5
2024-04-25T01:12:23.686Z,54.5
2024-04-25T01:14:07.331Z,54.6
2024-04-25T01:15:51.044Z,54.5
2024-04-25T01:17:34.764Z,54.5
2024-04-25T01:19:18.463Z,54.5
2024-04-25T01:21:02.153Z,54.5
2024-04-25T01:22:45.863Z,54.5
2024-04-25T01:24:29.576Z,54.5
2024-04-25T01:26:13.270Z,54.5
2024-04-25T01:27:56.950Z,54.5
2024-04-25T01:29:40.655Z,54.5
2024-04-25T01:31:24.359Z,54.5
2024-04-25T01:33:08.067Z,54.5
2024-04-25T01:34:51.768Z,54.6
2024-04-25T01:36:35.447Z,54.5
2024-04-25T01:38:19.169Z,54.4
2024-04-25T01:40:02.870Z,54.5
2024-04-25T01:41:46.562Z,54.5
2024-04-25T01:43:30.395Z,54.5
2024-04-25T01:45:13.981Z,54.5
2024-04-25T01:46:57.669Z,54.5
2024-04-25T01:48:41.401Z,54.5
2024-04-25T01:50:25.056Z,54.5
2024-04-25T01:52:08.782Z,54.5
2024-04-25T01:53:52.504Z,54.5
2024-04-25T01:55:36.184Z,54.4
2024-04-25T01:57:19.864Z,54.4
2024-04-25T01:59:03.644Z,54.5
2024-04-25T02:00:47.275Z,54.5
2024-04-25T02:02:31.005Z,54.4
2024-04-25T02:04:14.666Z,54.4
2024-04-25T02:05:58.383Z,54.4
2024-04-25T02:07:42.107Z,54.4
2024-04-25T02:09:25.807Z,54.5
2024-04-25T02:11:09.506Z,54.4
2024-04-25T02:12:53.195Z,54.4
2024-04-25T02:14:36.911Z,54.4
2024-04-25T02:16:20.609Z,54.3
2024-04-25T02:18:04.304Z,54.3
2024-04-25T02:19:47.989Z,54.4
2024-04-25T02:21:31.707Z,54.4
2024-04-25T02:23:15.407Z,54.3
2024-04-25T02:24:59.120Z,54.3
2024-04-25T02:26:42.825Z,54.3
2024-04-25T02:28:26.543Z,54.3
2024-04-25T02:30:10.218Z,54.4
2024-04-25T02:31:53.928Z,54.3
2024-04-25T02:33:37.635Z,54.3
2024-04-25T02:35:21.345Z,54.4
2024-04-25T02:37:05.161Z,54.4
2024-04-25T02:38:49.265Z,54.4
2024-04-25T02:40:32.428Z,54.4
2024-04-25T02:42:16.108Z,54.3
2024-04-25T02:43:59.822Z,54.3
2024-04-25T02:45:43.547Z,54.3
2024-04-25T02:47:27.236Z,54.3
2024-04-25T02:49:10.938Z,54.3
2024-04-25T02:50:54.631Z,54.4
2024-04-25T02:52:38.328Z,54.4
2024-04-25T02:54:22.049Z,54.3
2024-04-25T02:56:05.751Z,54.3
2024-04-25T02:57:49.428Z,54.3
2024-04-25T02:59:33.151Z,54.3
2024-04-25T03:01:16.851Z,54.3
2024-04-25T03:03:00.572Z,54.3
2024-04-25T03:04:44.258Z,54.4
2024-04-25T03:06:27.959Z,54.3
2024-04-25T03:08:11.662Z,54.4
2024-04-25T03:09:55.370Z,54.2
2024-04-25T03:11:39.042Z,54.2
2024-04-25T03:13:23.148Z,54.3
2024-04-25T03:15:06.535Z,54.3
2024-04-25T03:16:50.172Z,54.2
2024-04-25T03:18:33.867Z,54.3
2024-04-25T03:20:17.565Z,54.3
2024-04-25T03:22:01.261Z,54.2
2024-04-25T03:23:44.971Z,54.2
2024-04-25T03:25:28.665Z,54.2
2024-04-25T03:27:12.382Z,54.3
2024-04-25T03:28:56.086Z,54.2
2024-04-25T03:30:39.773Z,54.2
2024-04-25T03:32:23.492Z,54.2
2024-04-25T03:34:07.175Z,54.2
2024-04-25T03:35:50.877Z,54.2
2024-04-25T03:37:34.594Z,54.2
2024-04-25T03:39:18.273Z,54.2
2024-04-25T03:41:01.971Z,54.2
2024-04-25T03:42:45.684Z,54.2
2024-04-25T03:44:29.386Z,54.2
2024-04-25T03:46:13.155Z,54.2
2024-04-25T03:47:56.778Z,54.1
2024-04-25T03:49:40.498Z,54.1
2024-04-25T03:51:24.197Z,54.1
2024-04-25T03:53:07.909Z,54.1
2024-04-25T03:54:51.616Z,54.2
2024-04-25T03:56:35.312Z,54.2
2024-04-25T03:58:19.202Z,54.1
2024-04-25T04:00:02.709Z,54.1
2024-04-25T04:01:46.420Z,54.1
2024-04-25T04:03:30.111Z,54.1
2024-04-25T04:05:13.816Z,54
2024-04-25T04:06:57.531Z,54.1
2024-04-25T04:08:41.241Z,54.2
2024-04-25T04:10:24.934Z,54
2024-04-25T04:12:08.646Z,54
2024-04-25T04:13:52.341Z,54
2024-04-25T04:15:36.022Z,53.9
2024-04-25T04:17:19.727Z,54
2024-04-25T04:19:03.427Z,54
2024-04-25T04:20:47.128Z,53.9
2024-04-25T04:22:30.838Z,53.9
2024-04-25T04:24:14.531Z,53.9
2024-04-25T04:25:58.246Z,53.9
2024-04-25T04:27:41.943Z,53.9
2024-04-25T04:29:25.794Z,54
2024-04-25T04:31:09.355Z,54
2024-04-25T04:32:53.044Z,54.1
2024-04-25T04:34:36.748Z,54
2024-04-25T04:36:20.462Z,54
2024-04-25T04:38:04.156Z,53.9
2024-04-25T04:39:47.835Z,53.9
2024-04-25T04:41:31.548Z,54
2024-04-25T04:43:15.361Z,54
2024-04-25T04:44:58.968Z,54
2024-04-25T04:46:42.662Z,54
2024-04-25T04:48:26.365Z,54
2024-04-25T04:50:10.066Z,54
2024-04-25T04:51:53.793Z,54
2024-04-25T04:53:37.460Z,54
2024-04-25T04:55:21.247Z,54
2024-04-25T04:57:04.855Z,54
2024-04-25T04:58:48.564Z,54
2024-04-25T05:00:32.297Z,54
2024-04-25T05:02:16.107Z,54
2024-04-25T05:03:59.658Z,54
2024-04-25T05:05:43.382Z,54
2024-04-25T05:07:27.077Z,53.9
2024-04-25T05:09:10.787Z,54
2024-04-25T05:10:54.485Z,54
2024-04-25T05:12:38.188Z,54
2024-04-25T05:14:21.897Z,54
2024-04-25T05:16:05.600Z,54
2024-04-25T05:17:49.282Z,54
2024-04-25T05:19:32.974Z,54
2024-04-25T05:21:16.686Z,54
2024-04-25T05:23:00.387Z,54.1
2024-04-25T05:24:44.082Z,54
2024-04-25T05:26:27.787Z,54
2024-04-25T05:28:11.500Z,54.1
2024-04-25T05:29:55.321Z,54.1
2024-04-25T05:31:38.893Z,54.1
2024-04-25T05:33:22.592Z,54.1
2024-04-25T05:35:06.319Z,54.3
2024-04-25T05:36:50.005Z,54.3
2024-04-25T05:38:33.713Z,54.1
2024-04-25T05:40:17.409Z,53.9
2024-04-25T05:42:01.108Z,53.8
2024-04-25T05:43:44.806Z,54
2024-04-25T05:45:28.520Z,54
2024-04-25T05:47:12.225Z,54
2024-04-25T05:48:55.905Z,54
2024-04-25T05:50:39.677Z,54
2024-04-25T05:52:23.314Z,54
2024-04-25T05:54:07.082Z,54
2024-04-25T05:55:50.712Z,54
2024-04-25T05:57:34.409Z,54
2024-04-25T05:59:18.129Z,54
2024-04-25T06:01:01.819Z,54.1
2024-04-25T06:02:45.545Z,54.1
2024-04-25T06:04:29.231Z,54.1
2024-04-25T06:06:12.976Z,54.2
2024-04-25T06:07:56.637Z,54.1
2024-04-25T06:09:40.349Z,54.1
2024-04-25T06:11:24.058Z,54.1
2024-04-25T06:13:07.734Z,54.1
2024-04-25T06:14:51.445Z,54.2
2024-04-25T06:16:35.142Z,54.3
2024-04-25T06:18:18.841Z,54.4
2024-04-25T06:20:02.563Z,54.3
2024-04-25T06:21:46.247Z,54.4
2024-04-25T06:23:29.957Z,54.6
2024-04-25T06:25:13.640Z,54.5
2024-04-25T06:26:57.347Z,54.5
2024-04-25T06:28:41.055Z,54.5
2024-04-25T06:30:24.764Z,54.5
2024-04-25T06:32:08.449Z,54.3
2024-04-25T06:33:52.157Z,54.4
2024-04-25T06:35:35.870Z,54.3
2024-04-25T06:37:19.569Z,54.3
2024-04-25T06:39:03.286Z,54.3
2024-04-25T06:40:46.959Z,54.2
2024-04-25T06:42:30.684Z,54.2
2024-04-25T06:44:14.391Z,54.2
2024-04-25T06:45:58.084Z,54.1
2024-04-25T06:47:41.775Z,54.1
2024-04-25T06:49:25.483Z,54.1
2024-04-25T06:51:09.185Z,54.1
2024-04-25T06:52:52.898Z,54.1
2024-04-25T06:54:36.584Z,54
2024-04-25T06:56:20.286Z,54
2024-04-25T06:58:03.979Z,54.2
2024-04-25T06:59:47.693Z,54.1
2024-04-25T07:01:31.402Z,54.1
2024-04-25T07:03:15.095Z,54.5
2024-04-25T07:04:58.800Z,54.9
2024-04-25T07:06:42.505Z,55
2024-04-25T07:08:26.208Z,55.1
2024-04-25T07:10:09.924Z,55
2024-04-25T07:11:53.613Z,55
2024-04-25T07:13:37.324Z,54.9
2024-04-25T07:15:21.024Z,54.7
2024-04-25T07:17:04.719Z,54.6
2024-04-25T07:18:48.410Z,54.5
2024-04-25T07:20:32.110Z,54.3
2024-04-25T07:22:15.834Z,54.2
2024-04-25T07:23:59.519Z,53.9
2024-04-25T07:25:43.226Z,53.7
2024-04-25T07:27:26.917Z,53.6
2024-04-25T07:29:10.762Z,53.6
2024-04-25T07:30:54.297Z,53.7
2024-04-25T07:32:38.037Z,53.8
2024-04-25T07:34:21.712Z,54
2024-04-25T07:36:05.423Z,54
2024-04-25T07:37:49.136Z,54
2024-04-25T07:39:32.843Z,53.9
2024-04-25T07:41:16.531Z,53.9
2024-04-25T07:43:00.255Z,53.9
2024-04-25T07:44:43.962Z,53.7
2024-04-25T07:46:27.643Z,53.6
2024-04-25T07:49:55.050Z,53.4
2024-04-25T07:51:38.751Z,53.1
2024-04-25T07:53:22.473Z,53
2024-04-25T07:55:06.157Z,52.8
2024-04-25T07:56:49.855Z,52.6
2024-04-25T07:58:33.555Z,52.5
2024-04-25T08:00:17.246Z,51.9
2024-04-25T08:02:00.985Z,51.4
2024-04-25T08:03:44.671Z,51
2024-04-25T08:05:28.363Z,50.9
2024-04-25T08:07:12.042Z,51.1
2024-04-25T08:08:55.771Z,51.5
2024-04-25T08:10:39.469Z,51.7
2024-04-25T08:12:23.164Z,51.9
2024-04-25T08:14:06.882Z,52
2024-04-25T08:15:50.597Z,52.1
2024-04-25T08:17:34.291Z,52
2024-04-25T08:19:17.999Z,52
2024-04-25T08:21:01.695Z,51.8
2024-04-25T08:22:45.397Z,51.7
2024-04-25T08:24:29.104Z,51.6
2024-04-25T08:26:12.791Z,51.6
2024-04-25T08:27:56.509Z,51.5
2024-04-25T08:29:40.209Z,51.4
2024-04-25T08:31:23.909Z,51.4
2024-04-25T08:33:07.615Z,51.3
2024-04-25T08:34:51.306Z,51.3
2024-04-25T08:36:34.989Z,51.1
2024-04-25T08:38:18.718Z,51.2
2024-04-25T08:40:02.427Z,51.4
2024-04-25T08:41:46.125Z,51.5
2024-04-25T08:43:29.811Z,51.5
2024-04-25T08:45:13.511Z,51.4
2024-04-25T08:46:57.220Z,51.3
2024-04-25T08:48:40.926Z,51.1
2024-04-25T08:50:24.602Z,51
2024-04-25T08:52:08.324Z,50.9
2024-04-25T08:53:52.036Z,50.7
2024-04-25T08:55:35.755Z,50.7
2024-04-25T08:57:19.456Z,50.6
2024-04-25T08:59:03.152Z,50.6
2024-04-25T09:00:46.848Z,50.5
2024-04-25T09:02:30.560Z,50.4
2024-04-25T09:04:14.262Z,50.4
2024-04-25T09:05:57.956Z,50.6
2024-04-25T09:07:41.672Z,50.5
2024-04-25T09:09:25.370Z,50.4
2024-04-25T09:11:09.073Z,50.5
2024-04-25T09:12:52.779Z,50.6
2024-04-25T09:14:36.483Z,50.8
2024-04-25T09:16:20.184Z,51
2024-04-25T09:18:03.888Z,51.1
2024-04-25T09:19:47.590Z,51.3
2024-04-25T09:21:31.279Z,51.6
2024-04-25T09:23:14.992Z,51.8
2024-04-25T09:24:58.737Z,51.8
2024-04-25T09:26:42.392Z,51.8
2024-04-25T09:28:26.167Z,51.9
2024-04-25T09:30:09.815Z,51.9
2024-04-25T09:31:53.515Z,51.8
2024-04-25T09:33:37.198Z,51.6
2024-04-25T09:35:20.916Z,51.5
2024-04-25T09:37:04.629Z,51.4
2024-04-25T09:38:48.315Z,51.4
2024-04-25T09:40:32.170Z,51.4
2024-04-25T09:42:15.712Z,51.3
2024-04-25T09:43:59.425Z,51.3
2024-04-25T09:45:43.121Z,51.2
2024-04-25T09:47:26.835Z,51
2024-04-25T09:49:10.541Z,50.8
2024-04-25T09:50:54.236Z,50.9
2024-04-25T09:52:37.952Z,50.9
2024-04-25T09:54:21.650Z,50.9
2024-04-25T09:56:05.339Z,50.8
2024-04-25T09:57:49.079Z,50.6
2024-04-25T09:59:32.750Z,50.8
2024-04-25T10:01:16.458Z,50.9
2024-04-25T10:03:00.156Z,51.3
2024-04-25T10:04:44.084Z,51.7
2024-04-25T10:06:27.562Z,52.3
2024-04-25T10:08:11.247Z,52.9
2024-04-25T10:09:54.946Z,53.7
2024-04-25T10:11:38.662Z,54.1
2024-04-25T10:13:22.350Z,54.5
2024-04-25T10:15:06.073Z,54.6
2024-04-25T10:16:49.762Z,54.5
2024-04-25T10:18:33.469Z,54.1
2024-04-25T10:20:17.160Z,54.1
2024-04-25T10:22:00.865Z,54
2024-04-25T10:23:44.579Z,54.1
2024-04-25T10:25:28.272Z,53.9
2024-04-25T10:27:11.976Z,54
2024-04-25T10:28:55.689Z,54
2024-04-25T10:30:39.407Z,54.4
2024-04-25T10:32:23.079Z,54.8
2024-04-25T10:34:06.793Z,54.9
2024-04-25T10:35:50.479Z,54.8
2024-04-25T10:37:34.188Z,55.2
2024-04-25T10:39:17.896Z,55
2024-04-25T10:41:01.611Z,55
2024-04-25T10:42:45.298Z,55.6
2024-04-25T10:44:29.015Z,55.3
2024-04-25T10:46:12.711Z,55
2024-04-25T10:47:56.389Z,55
2024-04-25T10:49:40.098Z,55.1
2024-04-25T10:51:23.806Z,55.1
2024-04-25T10:53:07.520Z,55.1
2024-04-25T10:54:51.205Z,55.2
2024-04-25T10:56:34.901Z,55.3
2024-04-25T10:58:18.613Z,55.1
2024-04-25T11:00:02.328Z,55.1
2024-04-25T11:01:46.027Z,55
2024-04-25T11:03:29.752Z,55
2024-04-25T11:05:13.417Z,54.8
2024-04-25T11:06:57.112Z,54.6
2024-04-25T11:08:40.820Z,54.4
2024-04-25T11:10:24.583Z,54.1
2024-04-25T11:12:08.212Z,53.7
2024-04-25T11:13:51.946Z,53.5
2024-04-25T11:15:35.629Z,53.4
2024-04-25T11:17:19.344Z,53.5
2024-04-25T11:19:03.045Z,53.8
2024-04-25T11:20:46.928Z,53.6
2024-04-25T11:22:30.772Z,53.4
2024-04-25T11:24:14.362Z,53.6
2024-04-25T11:25:57.955Z,53.5
2024-04-25T11:27:41.788Z,53.6
2024-04-25T11:29:25.581Z,53.9
2024-04-25T11:31:09.204Z,54.4
2024-04-25T11:32:52.690Z,54.3
2024-04-25T11:34:36.655Z,54.7
2024-04-25T11:36:20.178Z,55.1
2024-04-25T11:38:03.769Z,55.6
2024-04-25T11:39:47.475Z,56
2024-04-25T11:41:31.247Z,57.2
2024-04-25T11:43:14.933Z,57.9
2024-04-25T11:44:58.593Z,57.9
2024-04-25T11:46:42.399Z,57.8
2024-04-25T11:48:26.005Z,58.1
2024-04-25T11:50:09.693Z,57.8
2024-04-25T11:51:53.400Z,58.2
2024-04-25T11:53:37.119Z,58.2
2024-04-25T11:55:20.789Z,58.6
2024-04-25T11:57:04.515Z,58.7
2024-04-25T11:58:48.231Z,58.7
2024-04-25T12:00:31.946Z,58.9
2024-04-25T12:02:15.755Z,58.8
2024-04-25T12:03:59.519Z,58.1
2024-04-25T12:05:43.039Z,57.4
2024-04-25T12:09:10.438Z,57.4
2024-04-25T12:10:54.139Z,57.5
2024-04-25T12:12:37.851Z,57.8
2024-04-25T12:14:21.551Z,58.1
2024-04-25T12:16:05.244Z,57.9
2024-04-25T12:17:49.149Z,57.8
2024-04-25T12:19:32.641Z,57.1
2024-04-25T12:21:16.414Z,56.7
2024-04-25T12:23:00.056Z,56.8
2024-04-25T12:24:43.747Z,56.6
2024-04-25T12:26:27.449Z,56.5
2024-04-25T12:28:11.152Z,56.2
2024-04-25T12:29:54.845Z,55.9
2024-04-25T12:31:38.552Z,55.8
2024-04-25T12:33:22.240Z,55.9
2024-04-25T12:35:05.961Z,55.9
2024-04-25T12:36:49.668Z,55.8
2024-04-25T12:38:33.349Z,55.4
2024-04-25T12:40:17.305Z,55.1
2024-04-25T12:42:00.787Z,55
2024-04-25T12:43:44.517Z,54.8
2024-04-25T12:45:28.179Z,54.6
2024-04-25T12:47:11.866Z,54.5
2024-04-25T12:48:55.569Z,54.3
2024-04-25T12:50:39.275Z,54.3
2024-04-25T12:52:22.975Z,54.3
2024-04-25T12:55:50.386Z,54.3
2024-04-25T12:57:34.080Z,54.3
2024-04-25T12:59:17.793Z,54.3
2024-04-25T13:01:01.466Z,54.2
2024-04-25T13:02:45.178Z,54.3
2024-04-25T13:04:28.880Z,54.3
2024-04-25T13:06:12.601Z,53.5
2024-04-25T13:07:56.309Z,53.6
2024-04-25T13:09:39.968Z,54
2024-04-25T13:11:23.682Z,54.5
2024-04-25T13:13:07.372Z,53.8
2024-04-25T13:14:51.072Z,53.9
2024-04-25T13:16:34.809Z,54.1
2024-04-25T13:18:18.475Z,54.4
2024-04-25T13:20:02.177Z,55.4
2024-04-25T13:21:45.863Z,55.5
2024-04-25T13:23:29.563Z,55.6
2024-04-25T13:25:13.269Z,55.7
2024-04-25T13:26:56.991Z,55.7
2024-04-25T13:28:40.682Z,55.7
2024-04-25T13:30:24.381Z,55.6
2024-04-25T13:32:08.086Z,55.5
2024-04-25T13:33:51.798Z,55.7
2024-04-25T13:35:35.486Z,55.9
2024-04-25T13:37:19.175Z,55.9
2024-04-25T13:39:02.894Z,56
2024-04-25T13:40:46.594Z,56.1
2024-04-25T13:42:30.285Z,56.4
2024-04-25T13:44:13.981Z,56.6
2024-04-25T13:45:57.726Z,56.9
2024-04-25T13:47:41.391Z,57.1
2024-04-25T13:49:25.438Z,57.5
2024-04-25T13:51:08.808Z,57.8
2024-04-25T13:52:52.498Z,57.9
2024-04-25T13:54:36.186Z,57.8
2024-04-25T13:56:19.916Z,57.6
2024-04-25T13:58:03.611Z,57.6
2024-04-25T13:59:47.294Z,57.2
2024-04-25T14:01:31.008Z,57.2
2024-04-25T14:03:14.694Z,57
2024-04-25T14:04:58.427Z,57
2024-04-25T14:06:42.103Z,57
2024-04-25T14:08:25.802Z,57
2024-04-25T14:10:09.534Z,57
2024-04-25T14:11:53.215Z,57.2
2024-04-25T14:13:36.904Z,57.5
2024-04-25T14:15:20.608Z,57.4
2024-04-25T14:17:04.323Z,57.4
2024-04-25T14:18:48.050Z,57.4
2024-04-25T14:20:31.742Z,56.7
2024-04-25T14:22:15.457Z,56.4
2024-04-25T14:23:59.114Z,56.7
2024-04-25T14:25:42.836Z,56
2024-04-25T14:27:26.566Z,56.2
2024-04-25T14:29:10.227Z,56.7
2024-04-25T14:30:57.990Z,57.1
2024-04-25T14:33:02.017Z,57.1
2024-04-25T14:35:06.095Z,57.4
2024-04-25T14:37:10.995Z,57.6
2024-04-25T14:39:17.043Z,57.6
2024-04-25T14:41:20.566Z,57.4
2024-04-25T14:43:26.647Z,57.4
2024-04-25T14:45:32.698Z,57.6
2024-04-25T14:47:38.767Z,57.6
2024-04-25T14:51:52.004Z,57.8
2024-04-25T14:53:59.072Z,57.7
2024-04-25T14:56:06.180Z,57.6
2024-04-25T14:58:13.244Z,57.7
2024-04-25T15:00:20.320Z,57.9
2024-04-25T15:02:27.821Z,57.9
2024-04-25T15:04:32.858Z,55.4
2024-04-25T15:06:27.451Z,53.2
2024-04-25T15:08:31.975Z,54.5
2024-04-25T15:10:36.766Z,55.3
2024-04-25T15:12:42.801Z,55.8
2024-04-25T15:14:48.951Z,56.2
2024-04-25T15:16:56.022Z,56.4
2024-04-25T15:19:03.151Z,56.5
2024-04-25T15:21:10.176Z,56.7
2024-04-25T15:23:17.463Z,56.7
2024-04-25T15:25:25.559Z,56.5
2024-04-25T15:27:33.665Z,56.5
2024-04-25T15:29:41.751Z,56.6
2024-04-25T15:31:49.851Z,56.8
2024-04-25T15:33:58.957Z,56.9
2024-04-25T15:36:08.081Z,56.9
2024-04-25T15:38:16.482Z,57
2024-04-25T15:40:24.764Z,57.1
2024-04-25T15:42:33.872Z,57.3
2024-04-25T15:44:42.970Z,57.4
2024-04-25T15:46:52.987Z,57.6
2024-04-25T15:49:03.132Z,57.3
2024-04-25T15:51:13.243Z,57.4
2024-04-25T15:53:23.364Z,57.5
2024-04-25T15:55:33.504Z,57.6
2024-04-25T15:57:43.651Z,58
2024-04-25T15:59:53.854Z,58.1
2024-04-25T16:02:05.003Z,58.1
2024-04-25T16:04:16.155Z,58.1
2024-04-25T16:06:27.089Z,58.2
2024-04-25T16:08:37.228Z,58.1
2024-04-25T16:10:48.060Z,58.3
2024-04-25T16:12:59.195Z,58.5
2024-04-25T16:15:10.343Z,58.3
2024-04-25T16:17:21.494Z,58.3
2024-04-25T16:19:32.626Z,58.4
2024-04-25T16:21:43.662Z,58.3
2024-04-25T16:23:52.876Z,56.8
2024-04-25T16:26:02.002Z,57
2024-04-25T16:28:11.114Z,57.2
2024-04-25T16:30:20.287Z,57.5
2024-04-25T16:32:29.332Z,57.6
2024-04-25T16:34:38.432Z,57.4
2024-04-25T16:36:47.559Z,57.6
2024-04-25T16:38:56.667Z,57.7
2024-04-25T16:41:05.776Z,57.8
2024-04-25T16:43:14.892Z,58
2024-04-25T16:45:24.225Z,58.2
2024-04-25T16:47:24.676Z,53.1
2024-04-25T16:49:08.404Z,47.9
2024-04-25T16:51:11.088Z,56.7
2024-04-25T16:52:58.860Z,53.4
2024-04-25T16:54:42.555Z,53.4
2024-04-25T16:56:26.247Z,54.2
2024-04-25T16:58:09.964Z,54.6
2024-04-25T16:59:54.163Z,54.8
2024-04-25T17:01:37.367Z,54.8
2024-04-25T17:03:21.076Z,55.3
2024-04-25T17:05:04.771Z,55.7
2024-04-25T17:06:48.477Z,55.8
2024-04-25T17:08:32.197Z,56
2024-04-25T17:10:15.899Z,56
2024-04-25T17:11:59.612Z,56.1
2024-04-25T17:13:43.313Z,57
2024-04-25T17:15:27.012Z,57.1
2024-04-25T17:17:10.693Z,57.2
2024-04-25T17:18:54.401Z,56.9
2024-04-25T17:20:38.109Z,57
2024-04-25T17:22:21.939Z,57
2024-04-25T17:24:05.497Z,57.1
2024-04-25T17:25:49.220Z,57.1
2024-04-25T17:27:32.927Z,57.2
2024-04-25T17:29:16.645Z,57.2
2024-04-25T17:31:00.327Z,57.1
2024-04-25T17:32:44.041Z,57.1
2024-04-25T17:34:27.727Z,57.2
2024-04-25T17:36:11.442Z,57.3
2024-04-25T17:37:55.138Z,57.3
2024-04-25T17:39:38.825Z,57.3
2024-04-25T17:41:22.544Z,57.2
2024-04-25T17:43:06.219Z,57.3
2024-04-25T17:44:49.940Z,57.3
2024-04-25T17:46:33.624Z,57.3
2024-04-25T17:48:17.325Z,57.3
2024-04-25T17:50:01.052Z,57.3
2024-04-25T17:51:44.829Z,57
2024-04-25T17:53:28.452Z,57.1
2024-04-25T17:55:12.148Z,57.3
2024-04-25T17:56:55.892Z,57.4
2024-04-25T17:58:39.555Z,57.3
2024-04-25T18:00:23.263Z,57.1
2024-04-25T18:02:06.946Z,56.8
2024-04-25T18:03:50.658Z,56.6
2024-04-25T18:05:34.344Z,56.5
2024-04-25T18:07:18.068Z,56.5
2024-04-25T18:09:01.762Z,56.8
2024-04-25T18:10:45.457Z,57
2024-04-25T18:12:29.182Z,57.2
2024-04-25T18:14:12.883Z,57.3
2024-04-25T18:15:56.590Z,57.1
2024-04-25T18:17:40.271Z,57
2024-04-25T18:19:23.998Z,57
2024-04-25T18:21:07.690Z,57
2024-04-25T18:22:51.381Z,57
2024-04-25T18:24:35.080Z,57
2024-04-25T18:26:18.812Z,57
2024-04-25T18:28:02.486Z,57.2
2024-04-25T18:29:46.182Z,57.1
2024-04-25T18:31:29.894Z,57.1
2024-04-25T18:33:13.567Z,57.2
2024-04-25T18:34:57.289Z,57.3
2024-04-25T18:36:41.003Z,57.2
2024-04-25T18:38:24.697Z,57.2
2024-04-25T18:40:08.388Z,57.3
2024-04-25T18:41:52.098Z,57.3
2024-04-25T18:43:35.799Z,57.3
2024-04-25T18:45:19.521Z,57.3
2024-04-25T18:47:03.192Z,57.3
2024-04-25T18:48:47.048Z,57.5
2024-04-25T18:50:30.615Z,57.6
2024-04-25T18:52:14.301Z,57.5
2024-04-25T18:53:58.070Z,57.7
2024-04-25T18:55:41.710Z,57.8
2024-04-25T18:57:25.422Z,57.8
2024-04-25T18:59:09.128Z,57.8
2024-04-25T19:00:52.830Z,57.7
2024-04-25T19:02:36.530Z,57.8
2024-04-25T19:04:20.239Z,57.8
2024-04-25T19:06:03.941Z,57.8
2024-04-25T19:07:47.653Z,57.9
2024-04-25T19:09:31.356Z,57.9
2024-04-25T19:11:15.047Z,57.8
2024-04-25T19:12:58.757Z,57.9
2024-04-25T19:14:42.479Z,57.9
2024-04-25T19:16:26.190Z,58
2024-04-25T19:18:09.839Z,57.9
2024-04-25T19:19:53.559Z,57.9
2024-04-25T19:21:37.276Z,57.9
2024-04-25T19:23:20.954Z,58
2024-04-25T19:25:04.668Z,58
2024-04-25T19:26:48.347Z,58
2024-04-25T19:28:32.077Z,58
2024-04-25T19:30:15.757Z,58
2024-04-25T19:31:59.471Z,58
2024-04-25T19:33:43.145Z,58
2024-04-25T19:35:26.888Z,58.1
2024-04-25T19:37:10.565Z,58
2024-04-25T19:38:54.284Z,58
2024-04-25T19:40:37.978Z,58
2024-04-25T19:42:21.672Z,58
2024-04-25T19:44:05.378Z,58
2024-04-25T19:45:49.080Z,58
2024-04-25T19:47:32.798Z,58
2024-04-25T19:49:16.492Z,58.3
2024-04-25T19:51:00.188Z,58.2
2024-04-25T19:52:43.870Z,58.1
2024-04-25T19:54:27.616Z,58.1
2024-04-25T19:56:11.285Z,58.1
2024-04-25T19:57:54.990Z,58.1
2024-04-25T19:59:38.711Z,58.1
2024-04-25T20:01:22.401Z,58
2024-04-25T20:03:06.102Z,57.9
2024-04-25T20:04:49.823Z,57.9
2024-04-25T20:06:33.490Z,57.8
2024-04-25T20:08:17.200Z,57.8
2024-04-25T20:10:01.035Z,57.9
2024-04-25T20:11:44.585Z,57.9
2024-04-25T20:13:28.294Z,57.8
2024-04-25T20:15:12.005Z,57.9
2024-04-25T20:16:55.719Z,57.8
2024-04-25T20:18:39.420Z,57.7
2024-04-25T20:20:23.139Z,57.7
2024-04-25T20:22:06.862Z,57.7
2024-04-25T20:23:50.635Z,57.7
2024-04-25T20:25:34.248Z,57.7
2024-04-25T20:27:17.910Z,57.7
2024-04-25T20:29:01.605Z,57.7
2024-04-25T20:30:45.320Z,57.7
2024-04-25T20:32:29.036Z,57.7
2024-04-25T20:34:12.734Z,57.6
2024-04-25T20:35:56.439Z,57.6
2024-04-25T20:37:40.119Z,57.6
2024-04-25T20:39:23.836Z,57.6
2024-04-25T20:41:07.764Z,57.5
2024-04-25T20:42:51.625Z,57.6
2024-04-25T20:44:35.260Z,57.5
2024-04-25T20:46:18.834Z,57.6
2024-04-25T20:48:02.513Z,57.5
2024-04-25T20:49:46.216Z,57.5
2024-04-25T20:51:30.038Z,57.5
2024-04-25T20:53:13.443Z,57.5
2024-04-25T20:54:57.137Z,57.5
2024-04-25T20:56:40.867Z,57.5
2024-04-25T20:58:24.550Z,57.4
2024-04-25T21:00:08.267Z,57.4
2024-04-25T21:01:51.956Z,57.5
2024-04-25T21:03:35.645Z,57.5
2024-04-25T21:05:19.356Z,57.5
2024-04-25T21:07:03.058Z,57.5
2024-04-25T21:08:46.747Z,57.4
2024-04-25T21:10:30.463Z,57.4
2024-04-25T21:12:14.162Z,57.4
2024-04-25T21:13:57.870Z,57.4
2024-04-25T21:15:41.567Z,57.4
2024-04-25T21:17:25.278Z,57.5
2024-04-25T21:19:08.974Z,57.5
2024-04-25T21:20:52.657Z,57.4
2024-04-25T21:22:36.363Z,57.4
2024-04-25T21:24:20.088Z,57.4
2024-04-25T21:26:03.771Z,57.4
2024-04-25T21:27:47.479Z,57.4
2024-04-25T21:29:31.180Z,57.4
2024-04-25T21:31:14.868Z,57.4
2024-04-25T21:32:58.568Z,57.4
2024-04-25T21:34:42.281Z,57.4
2024-04-25T21:36:25.985Z,57.4
2024-04-25T21:38:09.902Z,57.4
2024-04-25T21:39:53.517Z,57.4
2024-04-25T21:41:37.485Z,57.5
2024-04-25T21:43:21.164Z,57.5
2024-04-25T21:45:04.903Z,57.4
2024-04-25T21:46:48.314Z,57.7
2024-04-25T21:48:31.890Z,57.4
2024-04-25T21:51:59.653Z,57
2024-04-25T21:53:42.998Z,57
2024-04-25T21:55:26.786Z,57
2024-04-25T21:57:10.797Z,57
2024-04-25T21:58:54.485Z,57
2024-04-25T22:00:38.219Z,57.1
2024-04-25T22:02:21.759Z,57.1
2024-04-25T22:04:05.680Z,56.8
2024-04-25T22:05:49.269Z,56.8
2024-04-25T22:07:32.840Z,56.8
2024-04-25T22:09:16.624Z,56.8
2024-04-25T22:11:00.147Z,56.8
2024-04-25T22:12:43.956Z,56.9
2024-04-25T22:14:27.421Z,56.9
2024-04-25T22:16:11.118Z,56.8
2024-04-25T22:17:54.812Z,56.9
2024-04-25T22:19:38.819Z,56.9
2024-04-25T22:21:22.511Z,56.8
2024-04-25T22:23:06.301Z,56.8
2024-04-25T22:24:50.064Z,56.8
2024-04-25T22:26:33.505Z,56.8
2024-04-25T22:28:17.385Z,56.9
2024-04-25T22:30:01.069Z,56.9
2024-04-25T22:31:44.436Z,56.9
2024-04-25T22:33:28.270Z,56.9
2024-04-25T22:35:12.121Z,56.9
2024-04-25T22:36:55.743Z,56.8
2024-04-25T22:38:39.560Z,56.9
2024-04-25T22:40:23.118Z,56.8
2024-04-25T22:42:07.005Z,56.9
2024-04-25T22:43:50.767Z,56.8
2024-04-25T22:45:34.416Z,56.9
2024-04-25T22:47:18.137Z,56.8
2024-04-25T22:49:01.737Z,56.8
2024-04-25T22:50:45.473Z,56.8
2024-04-25T22:52:29.119Z,56.8
2024-04-25T22:54:12.868Z,56.8
2024-04-25T22:55:56.647Z,56.8
2024-04-25T22:57:40.183Z,56.8
2024-04-25T22:59:23.961Z,56.8
2024-04-25T23:01:07.698Z,56.8
2024-04-25T23:02:51.511Z,56.7
2024-04-25T23:04:35.008Z,56.8
2024-04-25T23:06:18.476Z,56.8
2024-04-25T23:08:02.515Z,56.8
2024-04-25T23:09:46.057Z,56.8
2024-04-25T23:11:29.908Z,56.8
2024-04-25T23:13:13.688Z,56.8
2024-04-25T23:14:57.231Z,56.8
2024-04-25T23:16:40.688Z,56.7
2024-04-25T23:18:24.368Z,56.8
2024-04-25T23:20:08.478Z,56.7
2024-04-25T23:21:52.099Z,56.7
2024-04-25T23:23:36.249Z,56.8
2024-04-25T23:25:19.215Z,56.7
2024-04-25T23:27:03.269Z,56.7
2024-04-25T23:28:46.977Z,56.7
2024-04-25T23:30:30.604Z,56.7
2024-04-25T23:32:14.003Z,56.7
2024-04-25T23:33:57.692Z,56.8
2024-04-25T23:35:41.702Z,56.8
2024-04-25T23:37:25.270Z,56.8
2024-04-25T23:39:09.184Z,56.7
2024-04-25T23:40:52.535Z,56.6
2024-04-25T23:42:36.507Z,56.7
2024-04-25T23:44:20.334Z,56.7
2024-04-25T23:46:03.947Z,56.7
2024-04-25T23:47:47.518Z,56.7
2024-04-25T23:49:31.377Z,56.7